Terminal Aerodrome Forecast
Issued by NWS State College, PA

Home | Current Version | Previous Version | Text Only | Print | Product List | Glossary On
Versions: 1 2 3 4 5 6 7 8 9 10 11 12 13 14 15 16 17 18 19 20 21 22 23 24 25 26 27 28 29 30 31 32 33 34 35 36 37 38 39 40 41 42 43 44 45 46 47 48 49
000
FTUS41 KCTP 302055 AAB
TAFIPT
TAF AMD
KIPT 302055Z 3021/3118 11004KT P6SM VCSH SCT015 OVC045
     FM310000 10003KT 5SM BR SCT007 OVC015
     FM310600 10003KT 2SM BR OVC007
     FM311500 18002KT 6SM HZ BKN025=

USA.gov is the U.S. government's official web portal to all federal, state and local government web resources and services.